createdAt,value
2022-08-27T00:00:26.639Z,99655.28
2022-08-27T00:01:28.205Z,99651.66
2022-08-27T00:02:29.882Z,99653.31
2022-08-27T00:03:31.468Z,99658.38
2022-08-27T00:04:33.097Z,99654.44
2022-08-27T00:05:37.015Z,99656.00
2022-08-27T00:06:38.626Z,99657.69
2022-08-27T00:07:41.421Z,99655.03
2022-08-27T00:08:44.849Z,99654.72
2022-08-27T00:09:46.494Z,99650.94
2022-08-27T00:10:48.133Z,99659.78
2022-08-27T00:11:50.240Z,99646.75
2022-08-27T00:12:52.546Z,99643.97
2022-08-27T00:13:54.467Z,99650.84
2022-08-27T00:14:56.046Z,99644.50
2022-08-27T00:15:57.803Z,99639.34
2022-08-27T00:16:59.546Z,99645.63
2022-08-27T00:18:01.185Z,99639.59
2022-08-27T00:19:03.388Z,99640.59
2022-08-27T00:20:06.935Z,99586.78
2022-08-27T00:21:09.056Z,99638.22
2022-08-27T00:22:11.958Z,99646.19
2022-08-27T00:23:13.537Z,99649.69
2022-08-27T00:24:15.133Z,99635.53
2022-08-27T00:25:16.804Z,99638.34
2022-08-27T00:26:18.441Z,99641.13
2022-08-27T00:27:20.115Z,99647.72
2022-08-27T00:28:21.661Z,99645.31
2022-08-27T00:29:23.608Z,99642.97
2022-08-27T00:30:25.270Z,99650.50
2022-08-27T00:31:27.780Z,99636.22
2022-08-27T00:32:30.106Z,99644.56
2022-08-27T00:33:31.764Z,99646.53
2022-08-27T00:34:33.337Z,99646.69
2022-08-27T00:35:35.018Z,99651.28
2022-08-27T00:36:36.699Z,99650.44
2022-08-27T00:37:38.360Z,99650.72
2022-08-27T00:38:41.683Z,99652.66
2022-08-27T00:39:43.524Z,99658.53
2022-08-27T00:40:45.671Z,99641.09
2022-08-27T00:41:48.381Z,99642.78
2022-08-27T00:42:50.379Z,99647.97
2022-08-27T00:44:00.696Z,99653.69
2022-08-27T00:45:03.668Z,99650.34
2022-08-27T00:46:19.349Z,99656.63
2022-08-27T00:47:25.809Z,99655.22
2022-08-27T00:48:32.088Z,99657.28
2022-08-27T00:49:54.417Z,99657.41
2022-08-27T00:50:56.326Z,99654.91
2022-08-27T00:52:17.169Z,99664.53
2022-08-27T00:53:23.190Z,99632.19
2022-08-27T00:54:26.392Z,99660.72
2022-08-27T00:55:35.944Z,99653.75
2022-08-27T00:56:44.400Z,99658.06
2022-08-27T00:58:16.411Z,99649.41
2022-08-27T00:59:19.608Z,99660.81
2022-08-27T01:00:21.176Z,99654.34
2022-08-27T01:01:28.198Z,99652.94
2022-08-27T01:02:30.773Z,99651.94
2022-08-27T01:03:32.842Z,99658.25
2022-08-27T01:04:36.843Z,99648.88
2022-08-27T01:05:39.655Z,99649.03
2022-08-27T01:06:41.240Z,99647.22
2022-08-27T01:07:46.891Z,99642.06
2022-08-27T01:08:52.466Z,99651.94
2022-08-27T01:09:57.518Z,99652.94
2022-08-27T01:11:00.680Z,99640.88
2022-08-27T01:12:03.368Z,99639.19
2022-08-27T01:13:07.963Z,99642.31
2022-08-27T01:14:10.350Z,99634.13
2022-08-27T01:15:19.968Z,99645.09
2022-08-27T01:16:24.572Z,99641.28
2022-08-27T01:17:26.404Z,99637.06
2022-08-27T01:18:32.127Z,99633.25
2022-08-27T01:19:39.229Z,99646.66
2022-08-27T01:20:56.492Z,99640.63
2022-08-27T01:22:22.000Z,99640.16
2022-08-27T01:23:25.033Z,99636.91
2022-08-27T01:24:42.429Z,99633.28
2022-08-27T01:25:46.605Z,99636.19
2022-08-27T01:26:48.801Z,99639.72
2022-08-27T01:27:52.105Z,99636.44
2022-08-27T01:28:53.993Z,99642.63
2022-08-27T01:29:55.630Z,99640.22
2022-08-27T01:30:57.235Z,99640.09
2022-08-27T01:32:27.112Z,99641.75
2022-08-27T01:33:28.695Z,99641.75
2022-08-27T01:34:30.561Z,99643.19
2022-08-27T01:35:33.074Z,99646.81
2022-08-27T01:36:37.633Z,99642.38
2022-08-27T01:37:39.787Z,99637.44
2022-08-27T01:38:41.618Z,99645.72
2022-08-27T01:39:44.875Z,99640.41
2022-08-27T01:40:47.463Z,99647.28
2022-08-27T01:41:49.206Z,99652.34
2022-08-27T01:42:56.647Z,99648.72
2022-08-27T01:43:58.206Z,99650.41
2022-08-27T01:45:06.958Z,99645.81
2022-08-27T01:46:08.504Z,99645.81
2022-08-27T01:47:10.040Z,99643.16
2022-08-27T01:48:12.153Z,99646.78
2022-08-27T01:49:13.814Z,99643.88
2022-08-27T01:50:19.451Z,99646.41
2022-08-27T01:51:21.396Z,99640.22
2022-08-27T01:52:25.839Z,99640.84
2022-08-27T01:53:27.613Z,99644.06
2022-08-27T01:54:31.245Z,99644.75
2022-08-27T01:55:32.812Z,99646.47
2022-08-27T01:56:34.474Z,99643.66
2022-08-27T01:57:36.199Z,99635.97
2022-08-27T01:58:38.596Z,99643.41
2022-08-27T01:59:40.968Z,99642.31
2022-08-27T02:00:46.120Z,99637.84
2022-08-27T02:01:47.922Z,99635.28
2022-08-27T02:02:49.923Z,99641.19
2022-08-27T02:03:51.600Z,99637.69
2022-08-27T02:04:53.327Z,99639.91
2022-08-27T02:05:55.451Z,99638.75
2022-08-27T02:06:58.162Z,99640.53
2022-08-27T02:08:00.155Z,99641.16
2022-08-27T02:09:01.743Z,99637.50
2022-08-27T02:10:07.196Z,99641.47
2022-08-27T02:11:08.882Z,99643.84
2022-08-27T02:12:10.460Z,99644.56
2022-08-27T02:13:13.268Z,99646.38
2022-08-27T02:14:15.465Z,99642.31
2022-08-27T02:15:17.476Z,99643.81
2022-08-27T02:16:19.070Z,99639.59
2022-08-27T02:17:20.695Z,99634.28
2022-08-27T02:18:22.972Z,99637.72
2022-08-27T02:19:24.612Z,99615.28
2022-08-27T02:20:29.332Z,99632.53
2022-08-27T02:21:31.151Z,99635.19
2022-08-27T02:22:32.888Z,99632.25
2022-08-27T02:23:34.452Z,99637.72
2022-08-27T02:24:35.941Z,99633.25
2022-08-27T02:25:37.666Z,99629.16
2022-08-27T02:26:39.611Z,99632.25
2022-08-27T02:27:42.787Z,99637.56
2022-08-27T02:28:44.334Z,99635.78
2022-08-27T02:29:47.766Z,99639.41
2022-08-27T02:30:51.573Z,99632.53
2022-08-27T02:31:54.360Z,99632.53
2022-08-27T02:32:56.037Z,99639.41
2022-08-27T02:33:58.051Z,99637.47
2022-08-27T02:35:00.014Z,99628.91
2022-08-27T02:36:01.775Z,99648.09
2022-08-27T02:37:04.288Z,99638.56
2022-08-27T02:38:07.867Z,99642.78
2022-08-27T02:39:10.597Z,99638.56
2022-08-27T02:40:18.126Z,99645.81
2022-08-27T02:41:19.825Z,99642.44
2022-08-27T02:42:21.575Z,99639.06
2022-08-27T02:43:24.917Z,99636.56
2022-08-27T02:44:27.328Z,99637.63
2022-08-27T02:45:30.641Z,99636.19
2022-08-27T02:46:32.392Z,99634.78
2022-08-27T02:47:35.256Z,99636.59
2022-08-27T02:48:38.317Z,99636.84
2022-08-27T02:49:40.190Z,99631.66
2022-08-27T02:50:43.537Z,99629.00
2022-08-27T02:51:45.354Z,99623.00
2022-08-27T02:52:47.475Z,99625.06
2022-08-27T02:53:49.096Z,99624.47
2022-08-27T02:54:50.664Z,99627.38
2022-08-27T02:55:53.345Z,99619.66
2022-08-27T02:56:55.148Z,99617.28
2022-08-27T02:57:57.146Z,99626.91
2022-08-27T02:58:59.386Z,99622.59
2022-08-27T03:00:01.160Z,99627.06
2022-08-27T03:01:03.858Z,99619.22
2022-08-27T03:02:05.663Z,99620.19
2022-08-27T03:03:07.362Z,99618.50
2022-08-27T03:04:08.984Z,99620.19
2022-08-27T03:05:12.907Z,99618.38
2022-08-27T03:06:14.507Z,99621.16
2022-08-27T03:07:18.973Z,99620.34
2022-08-27T03:08:20.625Z,99624.94
2022-08-27T03:09:22.283Z,99621.44
2022-08-27T03:10:23.816Z,99622.38
2022-08-27T03:11:25.610Z,99626.84
2022-08-27T03:12:27.243Z,99624.19
2022-08-27T03:13:31.799Z,99625.16
2022-08-27T03:14:33.377Z,99622.91
2022-08-27T03:15:34.931Z,99634.94
2022-08-27T03:16:37.778Z,99630.59
2022-08-27T03:17:58.358Z,99632.28
2022-08-27T03:18:59.884Z,99632.28
2022-08-27T03:20:02.227Z,99624.47
2022-08-27T03:21:03.865Z,99622.75
2022-08-27T03:22:05.389Z,99621.81
2022-08-27T03:23:08.482Z,99626.28
2022-08-27T03:24:11.820Z,99623.47
2022-08-27T03:25:17.219Z,99617.22
2022-08-27T03:26:19.471Z,99622.28
2022-08-27T03:27:21.434Z,99628.41
2022-08-27T03:28:30.666Z,99632.63
2022-08-27T03:29:34.351Z,99629.00
2022-08-27T03:30:37.140Z,99630.66
2022-08-27T03:31:38.819Z,99633.22
2022-08-27T03:32:40.576Z,99644.66
2022-08-27T03:33:43.388Z,99631.53
2022-08-27T03:34:44.961Z,99626.06
2022-08-27T03:35:51.639Z,99637.16
2022-08-27T03:36:53.598Z,99629.91
2022-08-27T03:37:55.179Z,99632.44
2022-08-27T03:38:57.140Z,99628.94
2022-08-27T03:39:58.771Z,99630.50
2022-08-27T03:41:01.588Z,99627.84
2022-08-27T03:42:03.785Z,99626.44
2022-08-27T03:43:05.376Z,99596.69
2022-08-27T03:44:06.925Z,99638.66
2022-08-27T03:45:09.834Z,99639.34
2022-08-27T03:46:11.622Z,99641.06
2022-08-27T03:47:13.591Z,99637.44
2022-08-27T03:48:15.675Z,99634.78
2022-08-27T03:49:20.551Z,99639.97
2022-08-27T03:50:23.018Z,99636.34
2022-08-27T03:51:25.204Z,99635.22
2022-08-27T03:52:27.807Z,99636.19
2022-08-27T03:53:29.436Z,99635.22
2022-08-27T03:54:32.784Z,99634.25
2022-08-27T03:55:34.467Z,99635.22
2022-08-27T03:56:39.341Z,99632.56
2022-08-27T03:57:40.923Z,99633.41
2022-08-27T03:58:42.639Z,99631.59
2022-08-27T03:59:44.930Z,99629.78
2022-08-27T04:00:46.612Z,99629.78
2022-08-27T04:01:48.849Z,99634.25
2022-08-27T04:02:50.918Z,99628.69
2022-08-27T04:03:52.813Z,99627.84
2022-08-27T04:04:54.504Z,99628.69
2022-08-27T04:05:57.558Z,99626.16
2022-08-27T04:06:59.286Z,99628.69
2022-08-27T04:08:01.200Z,99631.25
2022-08-27T04:09:03.998Z,99630.41
2022-08-27T04:10:07.137Z,99627.00
2022-08-27T04:11:08.712Z,99629.44
2022-08-27T04:12:11.484Z,99627.75
2022-08-27T04:13:13.232Z,99630.41
2022-08-27T04:14:24.799Z,99619.09
2022-08-27T04:15:29.861Z,99627.63
2022-08-27T04:16:33.831Z,99623.72
2022-08-27T04:17:35.593Z,99634.03
2022-08-27T04:18:37.198Z,99625.25
2022-08-27T04:19:38.826Z,99623.56
2022-08-27T04:20:40.460Z,99626.09
2022-08-27T04:21:42.224Z,99622.47
2022-08-27T04:22:43.788Z,99626.81
2022-08-27T04:23:45.405Z,99617.88
2022-08-27T04:24:47.456Z,99616.19
2022-08-27T04:25:49.219Z,99587.09
2022-08-27T04:26:51.470Z,99624.16
2022-08-27T04:27:53.849Z,99625.25
2022-08-27T04:28:57.512Z,99627.22
2022-08-27T04:30:00.785Z,99631.78
2022-08-27T04:31:04.011Z,99628.00
2022-08-27T04:32:05.642Z,99629.09
2022-08-27T04:33:07.308Z,99631.13
2022-08-27T04:34:08.961Z,99627.06
2022-08-27T04:35:11.677Z,99633.22
2022-08-27T04:36:13.857Z,99627.31
2022-08-27T04:37:15.440Z,99624.66
2022-08-27T04:38:25.013Z,99629.97
2022-08-27T04:39:28.363Z,99633.47
2022-08-27T04:40:50.019Z,99630.09
2022-08-27T04:41:54.125Z,99634.16
2022-08-27T04:42:55.658Z,99636.13
2022-08-27T04:43:59.458Z,99627.59
2022-08-27T04:45:01.158Z,99632.63
2022-08-27T04:46:02.987Z,99633.72
2022-08-27T04:47:05.838Z,99634.16
2022-08-27T04:48:07.451Z,99633.31
2022-08-27T04:49:12.805Z,99636.59
2022-08-27T04:50:16.136Z,99634.78
2022-08-27T04:51:18.739Z,99631.97
2022-08-27T04:52:21.422Z,99633.78
2022-08-27T04:53:23.407Z,99626.53
2022-08-27T04:54:32.949Z,99634.81
2022-08-27T04:55:40.303Z,99634.56
2022-08-27T04:56:42.370Z,99638.06
2022-08-27T04:57:43.906Z,99633.34
2022-08-27T04:58:45.480Z,99635.19
2022-08-27T04:59:47.346Z,99633.34
2022-08-27T05:00:52.947Z,99631.66
2022-08-27T05:01:54.601Z,99629.97
2022-08-27T05:02:56.463Z,99633.47
2022-08-27T05:04:01.120Z,99636.13
2022-08-27T05:05:02.768Z,99636.97
2022-08-27T05:06:06.099Z,99641.31
2022-08-27T05:07:09.486Z,99640.34
2022-08-27T05:08:14.976Z,99643.13
2022-08-27T05:09:17.956Z,99642.53
2022-08-27T05:10:19.951Z,99649.53
2022-08-27T05:11:23.612Z,99642.41
2022-08-27T05:12:25.183Z,99665.34
2022-08-27T05:13:26.892Z,99651.22
2022-08-27T05:14:32.646Z,99649.28
2022-08-27T05:15:35.790Z,99651.91
2022-08-27T05:16:38.380Z,99650.13
2022-08-27T05:17:40.001Z,99652.63
2022-08-27T05:18:48.027Z,99651.81
2022-08-27T05:19:50.225Z,99649.88
2022-08-27T05:20:52.036Z,99641.75
2022-08-27T05:21:54.003Z,99642.63
2022-08-27T05:22:59.610Z,99648.38
2022-08-27T05:24:03.534Z,99650.91
2022-08-27T05:25:06.279Z,99650.69
2022-08-27T05:26:08.835Z,99642.72
2022-08-27T05:27:12.555Z,99647.75
2022-08-27T05:28:16.989Z,99637.41
2022-08-27T05:29:18.582Z,99646.25
2022-08-27T05:30:20.859Z,99643.59
2022-08-27T05:31:22.787Z,99641.34
2022-08-27T05:32:24.393Z,99640.84
2022-08-27T05:33:25.975Z,99642.63
2022-08-27T05:34:27.542Z,99642.38
2022-08-27T05:35:29.398Z,99642.09
2022-08-27T05:36:33.393Z,99642.81
2022-08-27T05:37:35.960Z,99648.88
2022-08-27T05:38:37.596Z,99647.75
2022-08-27T05:39:39.179Z,99650.28
2022-08-27T05:40:41.807Z,99646.78
2022-08-27T05:41:43.398Z,99658.25
2022-08-27T05:42:49.256Z,99648.56
2022-08-27T05:43:54.944Z,99644.25
2022-08-27T05:44:56.530Z,99648.56
2022-08-27T05:45:58.136Z,99643.41
2022-08-27T05:46:59.725Z,99648.72
2022-08-27T05:48:01.267Z,99640.28
2022-08-27T05:49:03.107Z,99646.91
2022-08-27T05:50:05.739Z,99647.03
2022-08-27T05:51:14.217Z,99646.78
2022-08-27T05:52:21.942Z,99647.47
2022-08-27T05:53:23.695Z,99651.69
2022-08-27T05:54:25.224Z,99642.63
2022-08-27T05:55:26.773Z,99644.31
2022-08-27T05:56:30.529Z,99650.34
2022-08-27T05:57:32.178Z,99649.34
2022-08-27T05:58:55.451Z,99648.13
2022-08-27T06:00:15.918Z,99648.25
2022-08-27T06:01:22.356Z,99648.69
2022-08-27T06:02:24.510Z,99648.94
2022-08-27T06:03:26.326Z,99646.03
2022-08-27T06:04:28.081Z,99643.63
2022-08-27T06:05:29.744Z,99645.19
2022-08-27T06:06:35.507Z,99650.94
2022-08-27T06:07:37.218Z,99644.53
2022-08-27T06:08:38.895Z,99655.59
2022-08-27T06:09:40.544Z,99647.50
2022-08-27T06:10:42.764Z,99645.28
2022-08-27T06:11:44.697Z,99645.56
2022-08-27T06:12:46.678Z,99646.97
2022-08-27T06:13:48.695Z,99645.88
2022-08-27T06:14:50.221Z,99644.75
2022-08-27T06:16:01.403Z,99651.19
2022-08-27T06:17:03.531Z,99646.72
2022-08-27T06:18:05.269Z,99648.41
2022-08-27T06:19:07.730Z,99650.34
2022-08-27T06:20:10.798Z,99646.16
2022-08-27T06:21:13.997Z,99646.72
2022-08-27T06:22:15.720Z,99651.91
2022-08-27T06:23:17.479Z,99653.44
2022-08-27T06:24:29.878Z,99646.22
2022-08-27T06:25:32.477Z,99649.03
2022-08-27T06:26:35.038Z,99651.72
2022-08-27T06:27:36.559Z,99651.56
2022-08-27T06:28:41.313Z,99653.53
2022-08-27T06:29:44.011Z,99649.56
2022-08-27T06:30:45.879Z,99651.53
2022-08-27T06:31:50.382Z,99648.03
2022-08-27T06:32:51.948Z,99658.53
2022-08-27T06:33:58.395Z,99652.22
2022-08-27T06:35:04.912Z,99645.03
2022-08-27T06:36:09.522Z,99656.59
2022-08-27T06:37:11.176Z,99651.13
2022-08-27T06:38:12.688Z,99650.41
2022-08-27T06:39:15.528Z,99668.19
2022-08-27T06:40:18.705Z,99645.94
2022-08-27T06:41:23.797Z,99649.56
2022-08-27T06:42:26.051Z,99648.13
2022-08-27T06:43:27.561Z,99651.53
2022-08-27T06:44:29.322Z,99648.41
2022-08-27T06:45:30.912Z,99653.44
2022-08-27T06:46:33.560Z,99651.78
2022-08-27T06:47:35.279Z,99656.84
2022-08-27T06:48:37.813Z,99672.78
2022-08-27T06:49:46.326Z,99651.97
2022-08-27T06:50:48.667Z,99657.16
2022-08-27T06:51:50.313Z,99646.53
2022-08-27T06:52:51.914Z,99648.06
2022-08-27T06:53:55.597Z,99654.09
2022-08-27T06:54:57.924Z,99651.28
2022-08-27T06:56:00.704Z,99655.38
2022-08-27T06:57:02.263Z,99662.38
2022-08-27T06:58:04.285Z,99648.22
2022-08-27T06:59:12.026Z,99656.66
2022-08-27T07:00:14.035Z,99656.66
2022-08-27T07:01:22.239Z,99659.75
2022-08-27T07:02:23.967Z,99646.84
2022-08-27T07:03:25.676Z,99655.16
2022-08-27T07:04:32.747Z,99653.75
2022-08-27T07:05:36.532Z,99658.91
2022-08-27T07:06:39.209Z,99657.69
2022-08-27T07:07:46.707Z,99655.31
2022-08-27T07:08:53.464Z,99651.97
2022-08-27T07:09:56.035Z,99651.66
2022-08-27T07:10:57.702Z,99656.44
2022-08-27T07:12:00.184Z,99650.69
2022-08-27T07:13:02.016Z,99646.94
2022-08-27T07:14:03.927Z,99652.56
2022-08-27T07:15:05.932Z,99650.16
2022-08-27T07:16:11.111Z,99655.50
2022-08-27T07:17:16.381Z,99654.78
2022-08-27T07:18:18.216Z,99656.44
2022-08-27T07:19:19.850Z,99647.22
2022-08-27T07:20:23.328Z,99628.41
2022-08-27T07:21:25.390Z,99650.00
2022-08-27T07:22:27.210Z,99657.72
2022-08-27T07:23:28.726Z,99658.00
2022-08-27T07:24:30.508Z,99657.16
2022-08-27T07:25:32.895Z,99662.47
2022-08-27T07:26:37.551Z,99655.06
2022-08-27T07:27:39.980Z,99656.72
2022-08-27T07:28:43.512Z,99660.13
2022-08-27T07:29:45.053Z,99659.00
2022-08-27T07:30:46.749Z,99674.81
2022-08-27T07:31:48.717Z,99662.09
2022-08-27T07:32:50.342Z,99670.31
2022-08-27T07:33:53.094Z,99657.00
2022-08-27T07:34:54.949Z,99657.84
2022-08-27T07:35:56.830Z,99667.09
2022-08-27T07:36:58.400Z,99630.34
2022-08-27T07:37:59.980Z,99658.22
2022-08-27T07:39:02.100Z,99660.91
2022-08-27T07:40:06.811Z,99669.31
2022-08-27T07:41:10.977Z,99682.34
2022-08-27T07:42:31.336Z,99686.41
2022-08-27T07:43:51.328Z,99677.31
2022-08-27T07:44:58.135Z,99686.28
2022-08-27T07:46:02.140Z,99681.66
2022-08-27T07:48:20.358Z,99678.28
2022-08-27T07:49:23.391Z,99686.03
2022-08-27T07:50:25.274Z,99688.78
2022-08-27T07:51:29.423Z,99693.03
2022-08-27T07:52:30.986Z,99685.31
2022-08-27T07:53:35.170Z,99684.63
2022-08-27T07:54:36.770Z,99686.56
2022-08-27T07:55:39.151Z,99688.78
2022-08-27T07:56:41.074Z,99688.56
2022-08-27T07:57:44.655Z,99682.13
2022-08-27T07:58:46.729Z,99683.50
2022-08-27T07:59:48.658Z,99679.88
2022-08-27T08:00:50.217Z,99685.91
2022-08-27T08:01:52.467Z,99678.06
2022-08-27T08:02:54.211Z,99685.22
2022-08-27T08:03:56.415Z,99688.03
2022-08-27T08:04:58.044Z,99684.31
2022-08-27T08:06:09.635Z,99671.88
2022-08-27T08:07:12.058Z,99682.81
2022-08-27T08:08:13.680Z,99686.06
2022-08-27T08:09:15.622Z,99689.25
2022-08-27T08:10:17.925Z,99689.00
2022-08-27T08:11:20.391Z,99687.44
2022-08-27T08:12:21.976Z,99687.19
2022-08-27T08:13:28.158Z,99689.00
2022-08-27T08:14:32.097Z,99684.94
2022-08-27T08:15:34.425Z,99691.50
2022-08-27T08:16:36.043Z,99690.09
2022-08-27T08:17:38.635Z,99686.47
2022-08-27T08:18:40.914Z,99688.13
2022-08-27T08:19:53.471Z,99691.38
2022-08-27T08:21:07.353Z,99700.19
2022-08-27T08:22:09.053Z,99700.91
2022-08-27T08:23:10.699Z,99692.78
2022-08-27T08:24:12.460Z,99693.63
2022-08-27T08:25:14.281Z,99693.72
2022-08-27T08:26:16.575Z,99699.22
2022-08-27T08:27:19.515Z,99700.22
2022-08-27T08:28:21.259Z,99696.69
2022-08-27T08:29:22.891Z,99714.50
2022-08-27T08:30:24.666Z,99701.56
2022-08-27T08:31:27.437Z,99694.25
2022-08-27T08:32:29.757Z,99704.63
2022-08-27T08:33:31.560Z,99704.78
2022-08-27T08:34:35.602Z,99718.63
2022-08-27T08:35:41.277Z,99708.81
2022-08-27T08:36:43.379Z,99706.44
2022-08-27T08:37:47.833Z,99700.16
2022-08-27T08:38:50.634Z,99714.84
2022-08-27T08:39:52.378Z,99711.91
2022-08-27T08:40:55.343Z,99712.03
2022-08-27T08:42:02.974Z,99707.94
2022-08-27T08:43:07.458Z,99715.63
2022-08-27T08:44:41.322Z,99715.28
2022-08-27T08:45:43.908Z,99720.25
2022-08-27T08:46:48.518Z,99721.44
2022-08-27T08:48:08.064Z,99710.19
2022-08-27T08:49:29.184Z,99712.09
2022-08-27T08:50:44.512Z,99714.22
2022-08-27T08:51:46.308Z,99711.00
2022-08-27T08:53:02.303Z,99714.75
2022-08-27T08:54:09.501Z,99707.75
2022-08-27T08:55:41.553Z,99715.00
2022-08-27T08:57:05.917Z,99722.16
2022-08-27T08:58:29.953Z,99718.19
2022-08-27T08:59:38.637Z,99714.34
2022-08-27T09:00:43.199Z,99668.00
2022-08-27T09:01:45.731Z,99700.50
2022-08-27T09:02:54.729Z,99710.75
2022-08-27T09:03:59.846Z,99723.03
2022-08-27T09:05:06.277Z,99719.66
2022-08-27T09:06:14.364Z,99718.72
2022-08-27T09:07:48.605Z,99723.28
2022-08-27T09:08:50.151Z,99675.03
2022-08-27T09:10:03.757Z,99727.44
2022-08-27T09:11:09.025Z,99733.03
2022-08-27T09:12:22.367Z,99725.56
2022-08-27T09:13:39.059Z,99727.50
2022-08-27T09:15:05.065Z,99728.09
2022-08-27T09:16:07.425Z,99732.91
2022-08-27T09:17:11.393Z,99737.81
2022-08-27T09:18:16.612Z,99731.56
2022-08-27T09:19:24.092Z,99731.22
2022-08-27T09:20:26.512Z,99733.59
2022-08-27T09:21:43.345Z,99742.03
2022-08-27T09:23:11.830Z,99738.91
2022-08-27T09:24:44.338Z,99738.91
2022-08-27T09:25:46.275Z,99743.28
2022-08-27T09:26:47.963Z,99737.97
2022-08-27T09:27:52.297Z,99741.44
2022-08-27T09:29:21.215Z,99732.91
2022-08-27T09:30:30.536Z,99735.22
2022-08-27T09:31:40.891Z,99739.34
2022-08-27T09:32:42.505Z,99749.50
2022-08-27T09:33:56.070Z,99743.34
2022-08-27T09:35:04.774Z,99740.44
2022-08-27T09:36:10.864Z,99740.59
2022-08-27T09:37:22.387Z,99739.13
2022-08-27T09:38:36.408Z,99736.75
2022-08-27T09:39:41.020Z,99741.34
2022-08-27T09:40:49.189Z,99741.56
2022-08-27T09:41:51.652Z,99737.94
2022-08-27T09:42:57.114Z,99728.69
2022-08-27T09:44:00.031Z,99738.78
2022-08-27T09:45:06.408Z,99743.50
2022-08-27T09:46:22.347Z,99741.56
2022-08-27T09:47:26.992Z,99737.94
2022-08-27T09:48:34.648Z,99744.94
2022-08-27T09:49:37.519Z,99740.22
2022-08-27T09:51:00.397Z,99737.06
2022-08-27T09:52:02.318Z,99742.16
2022-08-27T09:53:04.835Z,99741.03
2022-08-27T09:54:08.343Z,99747.91
2022-08-27T09:55:10.077Z,99742.00
2022-08-27T09:56:29.701Z,99744.91
2022-08-27T09:57:40.380Z,99740.69
2022-08-27T09:58:49.288Z,99739.72
2022-08-27T09:59:54.486Z,99741.78
2022-08-27T10:01:16.080Z,99740.34
2022-08-27T10:02:19.821Z,99739.13
2022-08-27T10:03:22.525Z,99742.75
2022-08-27T10:04:50.598Z,99743.72
2022-08-27T10:05:54.478Z,99743.63
2022-08-27T10:06:56.077Z,99746.38
2022-08-27T10:08:39.599Z,99746.84
2022-08-27T10:09:50.071Z,99746.84
2022-08-27T10:11:03.372Z,99746.59
2022-08-27T10:12:17.832Z,99752.63
2022-08-27T10:13:44.039Z,99751.25
2022-08-27T10:14:52.424Z,99754.66
2022-08-27T10:16:06.776Z,99750.69
2022-08-27T10:17:21.857Z,99752.75
2022-08-27T10:18:42.082Z,99739.50
2022-08-27T10:20:07.993Z,99758.19
2022-08-27T10:21:26.452Z,99751.81
2022-08-27T10:22:35.927Z,99752.19
2022-08-27T10:23:46.525Z,99738.00
2022-08-27T10:24:57.718Z,99756.44
2022-08-27T10:26:10.579Z,99755.34
2022-08-27T10:27:18.329Z,99746.19
2022-08-27T10:28:44.601Z,99775.75
2022-08-27T10:29:52.218Z,99746.91
2022-08-27T10:31:15.223Z,99747.41
2022-08-27T10:32:46.266Z,99751.78
2022-08-27T10:34:21.036Z,99745.47
2022-08-27T10:35:25.341Z,99756.94
2022-08-27T10:37:07.496Z,99756.81
2022-08-27T10:38:23.822Z,99760.09
2022-08-27T10:39:31.273Z,99756.72
2022-08-27T10:40:47.276Z,99761.75
2022-08-27T10:42:17.440Z,99765.72
2022-08-27T10:43:37.710Z,99762.56
2022-08-27T10:44:54.846Z,99767.88
2022-08-27T10:46:14.635Z,99757.75
2022-08-27T10:47:40.433Z,99759.06
2022-08-27T10:49:20.951Z,99754.34
2022-08-27T10:50:27.903Z,99758.78
2022-08-27T10:51:36.095Z,99758.06
2022-08-27T10:52:52.152Z,99779.41
2022-08-27T10:54:06.233Z,99754.28
2022-08-27T10:55:33.324Z,99760.69
2022-08-27T10:57:08.459Z,99764.63
2022-08-27T10:58:29.958Z,99754.72
2022-08-27T11:00:10.965Z,99755.75
2022-08-27T11:01:28.026Z,99759.22
2022-08-27T11:02:40.957Z,99773.50
2022-08-27T11:04:05.759Z,99758.28
2022-08-27T11:05:18.055Z,99757.88
2022-08-27T11:06:24.080Z,99760.41
2022-08-27T11:07:28.448Z,99758.59
2022-08-27T11:08:49.993Z,99764.53
2022-08-27T11:10:01.938Z,99759.47
2022-08-27T11:12:10.026Z,99751.16
2022-08-27T11:12:49.526Z,99751.88
2022-08-27T11:13:52.835Z,99759.22
2022-08-27T11:15:00.425Z,99759.06
2022-08-27T11:16:11.804Z,99756.31
2022-08-27T11:17:20.630Z,99743.19
2022-08-27T11:18:37.216Z,99754.38
2022-08-27T11:20:32.229Z,99760.16
2022-08-27T11:21:59.453Z,99752.50
2022-08-27T11:23:10.285Z,99752.50
2022-08-27T11:24:17.490Z,99758.88
2022-08-27T11:25:21.863Z,99758.19
2022-08-27T11:26:23.677Z,99781.34
2022-08-27T11:27:29.204Z,99757.97
2022-08-27T11:28:47.335Z,99758.09
2022-08-27T11:30:01.546Z,99751.09
2022-08-27T11:31:39.595Z,99771.25
2022-08-27T11:33:32.869Z,99755.91
2022-08-27T11:34:45.264Z,99749.69
2022-08-27T11:36:02.147Z,99749.16
2022-08-27T11:37:12.870Z,99753.03
2022-08-27T11:38:29.735Z,99753.28
2022-08-27T11:40:01.869Z,99752.91
2022-08-27T11:41:47.039Z,99739.53
2022-08-27T11:43:02.980Z,99746.78
2022-08-27T11:44:04.802Z,99748.03
2022-08-27T11:45:15.297Z,99748.84
2022-08-27T11:46:29.031Z,99740.78
2022-08-27T11:47:30.774Z,99750.75
2022-08-27T11:48:36.642Z,99751.25
2022-08-27T11:49:47.003Z,99743.19
2022-08-27T11:50:59.574Z,99740.59
2022-08-27T11:52:07.333Z,99741.34
2022-08-27T11:53:09.187Z,99746.66
2022-08-27T11:54:26.342Z,99744.50
2022-08-27T11:55:30.548Z,99740.41
2022-08-27T11:56:39.676Z,99746.19
2022-08-27T11:57:41.683Z,99741.25
2022-08-27T11:58:53.238Z,99749.56
2022-08-27T11:59:55.349Z,99739.66
2022-08-27T12:01:02.237Z,99733.00
2022-08-27T12:02:19.708Z,99744.00
2022-08-27T12:03:25.485Z,99746.13
2022-08-27T12:04:40.014Z,99742.50
2022-08-27T12:06:08.662Z,99735.50
2022-08-27T12:07:21.651Z,99738.63
2022-08-27T12:08:23.702Z,99740.31
2022-08-27T12:09:25.654Z,99736.09
2022-08-27T12:10:37.981Z,99739.00
2022-08-27T12:12:03.326Z,99727.69
2022-08-27T12:13:28.316Z,99741.03
2022-08-27T12:14:52.620Z,99736.84
2022-08-27T12:16:02.073Z,99740.97
2022-08-27T12:17:22.245Z,99738.06
2022-08-27T12:18:53.438Z,99737.84
2022-08-27T12:20:30.233Z,99733.47
2022-08-27T12:21:56.439Z,99731.56
2022-08-27T12:23:28.867Z,99723.47
2022-08-27T12:24:39.426Z,99734.38
2022-08-27T12:25:41.144Z,99718.81
2022-08-27T12:26:56.195Z,99720.09
2022-08-27T12:28:05.093Z,99722.03
2022-08-27T12:29:48.500Z,99716.25
2022-08-27T12:30:54.220Z,99727.88
2022-08-27T12:32:21.081Z,99722.09
2022-08-27T12:33:42.032Z,99718.47
2022-08-27T12:34:49.599Z,99718.81
2022-08-27T12:35:54.466Z,99719.88
2022-08-27T12:36:56.394Z,99717.69
2022-08-27T12:38:01.295Z,99711.75
2022-08-27T12:39:05.106Z,99723.66
2022-08-27T12:40:21.044Z,99715.94
2022-08-27T12:41:28.320Z,99712.88
2022-08-27T12:42:29.895Z,99716.97
2022-08-27T12:43:35.287Z,99706.81
2022-08-27T12:44:36.846Z,99738.06
2022-08-27T12:45:51.101Z,99715.31
2022-08-27T12:46:59.056Z,99715.78
2022-08-27T12:48:01.081Z,99714.69
2022-08-27T12:49:36.868Z,99712.03
2022-08-27T12:50:30.436Z,99702.25
2022-08-27T12:51:37.893Z,99691.31
2022-08-27T12:52:52.573Z,99704.91
2022-08-27T12:53:54.080Z,99706.72
2022-08-27T12:55:12.610Z,99708.47
2022-08-27T12:56:40.806Z,99713.94
2022-08-27T12:58:04.383Z,99709.47
2022-08-27T12:59:40.021Z,99710.19
2022-08-27T13:01:12.153Z,99709.44
2022-08-27T13:02:32.292Z,99710.00
2022-08-27T13:03:42.735Z,99706.16
2022-08-27T13:04:44.711Z,99710.06